Latest Weather Observations for Lucinda

IDQ60801

Issued at 8:12 am EST Tuesday 17 July 2018 (issued every 10 minutes, with the page automatically refreshed every 10 minutes)

About weather observations | Map of weather stations | Latest weather observations for QLD | Other Formats
Station Details ID: 032141 Name: LUCINDA POINT Lat: -18.52 Lon: 146.39 Height: 10.0 m
Data from the previous 72 hours. | See also: Recent months at Lucinda
Date/Time
EST
Temp
°C
App
Temp
°C
Dew
Point
°C
Rel
Hum
%
Delta-T
°C
Wind Press
QNH
hPa
Press
MSL
hPa
Rain since
9am
mm
Dir  Spd
km/h
Gust
km/h
Spd
kts
Gust
kts
17/08:00am 17.7 - - - - WSW 13 15 7 8 1016.9 1016.9 0.0
17/07:30am 17.5 - - - - WSW 13 15 7 8 1016.4 1016.4 0.0
17/07:00am 17.2 - - - - WSW 15 17 8 9 1016.0 1016.0 0.0
17/06:30am 17.5 - - - - SW 17 19 9 10 1015.7 1015.7 0.0
17/06:00am 17.8 - - - - SW 15 17 8 9 1015.5 1015.5 0.0
17/05:30am 17.8 - - - - SW 15 17 8 9 1015.4 1015.4 0.0
17/05:00am 18.1 - - - - SW 15 17 8 9 1015.2 1015.2 0.0
17/04:30am 18.3 - - - - SW 17 19 9 10 1015.1 1015.1 0.0
17/04:00am 18.4 - - - - SW 20 22 11 12 1015.1 1015.1 0.0
17/03:30am 17.9 - - - - SW 19 20 10 11 1014.9 1014.9 0.0
17/03:00am 18.8 - - - - WSW 17 19 9 10 1015.0 1015.0 0.0
17/02:30am 18.4 - - - - WSW 19 20 10 11 1015.1 1015.1 0.0
17/02:00am 18.4 - - - - SW 19 20 10 11 1015.7 1015.7 0.0
17/01:30am 18.8 - - - - SW 17 20 9 11 1015.5 1015.5 0.0
17/01:00am 19.3 - - - - SW 19 20 10 11 1015.8 1015.8 0.0
17/12:30am 19.5 - - - - SW 13 15 7 8 1015.6 1015.6 0.0
17/12:00am 19.9 - - - - WSW 9 13 5 7 1015.6 1015.6 0.0
 
Date/Time
EST
Temp
°C
App
Temp
°C
Dew
Point
°C
Rel
Hum
%
Delta-T
°C
Wind Press
QNH
hPa
Press
MSL
hPa
Rain since
9am
mm
Dir  Spd
km/h
Gust
km/h
Spd
kts
Gust
kts
16/11:30pm 19.9 21.0 18.9 94 0.6 WSW 11 11 6 6 1015.5 1015.5 0.0
16/11:00pm 20.6 21.9 18.5 88 1.3 SW 9 9 5 5 1015.7 1015.7 0.0
16/10:30pm 20.9 23.5 18.3 85 1.6 WNW 2 9 1 5 1015.7 1015.7 0.0
16/10:00pm 21.4 22.7 18.4 83 1.9 N 9 11 5 6 1015.6 1015.6 0.0
16/09:30pm 21.3 22.5 18.3 83 1.9 N 9 11 5 6 1015.4 1015.4 0.0
16/09:00pm 21.3 22.9 18.3 83 1.9 N 7 11 4 6 1015.3 1015.3 0.0
16/08:30pm 21.4 22.0 17.8 80 2.2 N 11 13 6 7 1015.1 1015.1 0.0
16/08:00pm 21.4 21.6 17.6 79 2.3 N 13 15 7 8 1014.9 1014.9 0.0
16/07:30pm 21.6 21.9 18.0 80 2.2 NNE 13 17 7 9 1014.5 1014.5 0.0
16/07:00pm 21.7 21.2 17.9 79 2.4 NE 17 20 9 11 1014.1 1014.1 0.0
16/06:30pm 21.6 21.2 18.0 80 2.2 NE 17 19 9 10 1013.8 1013.8 0.0
16/06:00pm 21.6 21.1 17.8 79 2.4 ENE 17 20 9 11 1013.6 1013.6 0.0
16/05:30pm 21.4 20.3 17.2 77 2.6 NE 19 20 10 11 1013.4 1013.4 0.0
16/05:00pm 21.4 20.2 17.0 76 2.7 NE 19 20 10 11 1013.2 1013.2 0.0
16/04:30pm 21.8 21.3 17.8 78 2.5 ENE 17 20 9 11 1013.1 1013.1 0.0
16/04:00pm 21.6 20.5 17.2 76 2.7 ENE 19 22 10 12 1012.9 1012.9 0.0
16/03:30pm 21.9 21.6 17.3 75 2.8 ENE 15 19 8 10 1012.9 1012.9 0.0
16/03:00pm 21.8 21.6 16.7 73 3.1 E 13 20 7 11 1013.0 1013.0 0.0
16/02:30pm 21.9 21.7 16.6 72 3.2 ENE 13 17 7 9 1013.3 1013.3 0.0
16/02:00pm 22.5 23.0 16.5 69 3.7 ESE 9 13 5 7 1013.8 1013.8 0.0
16/01:30pm 22.0 22.3 16.9 73 3.1 SE 11 15 6 8 1014.1 1014.1 0.0
16/01:00pm 21.8 21.9 16.5 72 3.2 SE 11 17 6 9 1014.5 1014.5 0.0
16/12:30pm 20.9 19.6 15.9 73 3.0 SE 17 20 9 11 1015.0 1015.0 0.0
16/12:00pm 20.9 20.3 15.7 72 3.1 S 13 20 7 11 1015.5 1015.5 0.0
16/11:30am 20.6 18.6 15.4 72 3.1 S 20 24 11 13 1016.0 1016.0 0.0
16/11:00am 20.6 19.0 14.9 70 3.3 S 17 20 9 11 1016.5 1016.5 0.0
16/10:30am 20.7 20.2 15.0 70 3.4 SSW 11 13 6 7 1016.4 1016.4 0.0
16/10:00am 20.4 20.1 15.4 73 3.0 SW 11 11 6 6 1016.6 1016.6 0.0
16/09:30am 19.7 18.5 15.1 75 2.7 SW 15 17 8 9 1016.5 1016.5 0.0
16/09:00am 19.3 17.3 15.0 76 2.5 WSW 19 20 10 11 1016.6 1016.6 0.0
16/08:30am 19.4 17.9 15.3 77 2.4 SW 17 20 9 11 1016.4 1016.4 0.0
16/08:00am 18.9 17.1 14.4 75 2.6 SW 17 20 9 11 1016.2 1016.2 0.0
16/07:30am 18.6 16.8 14.5 77 2.4 WSW 17 19 9 10 1016.0 1016.0 0.0
16/07:00am 17.6 15.7 14.3 81 1.9 WSW 17 20 9 11 1015.6 1015.6 0.0
16/06:30am 17.5 15.4 14.6 83 1.7 WSW 19 20 10 11 1015.4 1015.4 0.0
16/06:00am 17.8 16.2 14.9 83 1.7 SW 17 19 9 10 1015.2 1015.2 0.0
16/05:30am 18.0 15.6 14.5 80 2.0 SW 20 24 11 13 1014.8 1014.8 0.0
16/05:00am 18.3 15.8 14.2 77 2.4 SW 20 22 11 12 1014.5 1014.5 0.0
16/04:30am 18.1 15.8 14.0 77 2.3 SW 19 20 10 11 1014.4 1014.4 0.0
16/04:00am 18.2 15.9 14.1 77 2.3 WSW 19 20 10 11 1014.5 1014.5 0.0
16/03:30am 18.2 16.0 14.3 78 2.2 SW 19 22 10 12 1014.4 1014.4 0.0
16/03:00am 18.2 16.3 14.1 77 2.3 SW 17 19 9 10 1014.5 1014.5 0.0
16/02:30am 18.5 17.1 14.6 78 2.3 SW 15 17 8 9 1014.6 1014.6 0.0
16/02:00am 18.4 17.1 14.9 80 2.0 SW 15 17 8 9 1014.8 1014.8 0.0
16/01:30am 18.1 15.8 14.2 78 2.2 WSW 19 20 10 11 1015.1 1015.1 0.0
16/01:00am 18.2 16.0 14.5 79 2.1 WSW 19 20 10 11 1015.2 1015.2 0.0
16/12:30am 18.3 16.3 15.0 81 1.9 WSW 19 20 10 11 1015.3 1015.3 0.0
16/12:00am 18.3 16.6 14.8 80 2.0 WSW 17 19 9 10 1015.3 1015.3 0.0
 
Date/Time
EST
Temp
°C
App
Temp
°C
Dew
Point
°C
Rel
Hum
%
Delta-T
°C
Wind Press
QNH
hPa
Press
MSL
hPa
Rain since
9am
mm
Dir  Spd
km/h
Gust
km/h
Spd
kts
Gust
kts
15/11:30pm 20.0 19.9 15.0 73 2.9 W 9 11 5 6 1015.4 1015.4 0.0
15/11:00pm 21.3 20.1 14.0 63 4.2 NE 13 15 7 8 1015.5 1015.5 0.0
15/10:30pm 21.3 19.9 13.5 61 4.5 NE 13 17 7 9 1015.4 1015.4 0.0
15/10:00pm 21.3 19.6 13.5 61 4.5 NE 15 17 8 9 1015.4 1015.4 0.0
15/09:30pm 21.2 19.8 13.4 61 4.5 ENE 13 17 7 9 1015.4 1015.4 0.0
15/09:00pm 21.3 19.2 13.5 61 4.5 NE 17 20 9 11 1015.3 1015.3 0.0
15/08:30pm 21.2 19.3 12.9 59 4.7 ENE 15 20 8 11 1015.3 1015.3 0.0
15/08:00pm 21.2 19.4 13.4 61 4.5 ENE 15 19 8 10 1015.2 1015.2 0.0
15/07:30pm 21.1 19.0 12.5 58 4.9 E 15 19 8 10 1014.6 1014.6 0.0
15/07:00pm 21.2 19.5 12.6 58 4.9 E 13 17 7 9 1014.4 1014.4 0.0
15/06:30pm 21.1 19.4 12.3 57 5.0 E 13 17 7 9 1014.3 1014.3 0.0
15/06:00pm 21.1 19.4 12.5 58 4.9 ESE 13 20 7 11 1014.1 1014.1 0.0
15/05:30pm 21.3 19.6 12.4 57 5.0 E 13 17 7 9 1014.1 1014.1 0.0
15/05:00pm 21.6 20.1 13.0 58 4.9 E 13 19 7 10 1014.0 1014.0 0.0
15/04:30pm 21.5 19.7 12.1 55 5.3 E 13 19 7 10 1013.9 1013.9 0.0
15/04:00pm 21.6 19.5 12.5 56 5.2 E 15 17 8 9 1013.7 1013.7 0.0
15/03:30pm 21.8 20.0 13.2 58 4.9 E 15 20 8 11 1013.8 1013.8 0.0
15/03:00pm 21.6 19.4 12.2 55 5.3 E 15 19 8 10 1014.1 1014.1 0.0
15/02:30pm 21.8 19.7 12.4 55 5.3 ESE 15 20 8 11 1014.3 1014.3 0.0
15/02:00pm 22.0 21.0 13.4 58 5.0 ESE 11 17 6 9 1014.7 1014.7 0.0
15/01:30pm 20.9 21.1 15.7 72 3.1 S 9 11 5 6 1015.0 1015.0 0.0
15/01:00pm 20.5 19.5 15.5 73 3.0 SSW 15 19 8 10 1015.3 1015.3 0.0
15/12:30pm 20.7 20.3 16.1 75 2.8 S 13 17 7 9 1015.5 1015.5 0.0
15/12:00pm 20.5 19.1 15.5 73 3.0 S 17 20 9 11 1016.1 1016.1 0.0
15/11:30am 20.3 18.5 15.9 76 2.6 S 20 26 11 14 1016.5 1016.5 0.0
15/11:00am 21.3 20.0 13.7 62 4.4 SSE 13 22 7 12 1016.7 1016.7 0.0
15/10:30am 21.4 19.9 14.1 63 4.2 SE 15 22 8 12 1016.7 1016.7 0.0
15/10:00am 21.1 20.1 14.7 67 3.8 SE 13 19 7 10 1016.8 1016.8 0.0
15/09:30am 18.7 17.7 15.6 82 1.8 W 15 20 8 11 1016.8 1016.8 0.0
15/09:00am 18.2 16.8 15.6 85 1.5 W 17 19 9 10 1016.8 1016.8 0.0
15/08:30am 17.6 15.7 15.2 86 1.4 WSW 19 20 10 11 1016.5 1016.5 0.0
15/08:00am 17.3 16.1 15.1 87 1.3 WSW 15 19 8 10 1016.3 1016.3 0.0
15/07:30am 17.5 16.0 15.3 87 1.3 WSW 17 20 9 11 1016.1 1016.1 0.0
15/07:00am 17.4 15.2 15.0 86 1.4 SW 20 22 11 12 1015.9 1015.9 0.0
15/06:30am 17.4 15.8 14.9 85 1.4 SW 17 20 9 11 1015.5 1015.5 0.0
15/06:00am 17.5 15.4 14.8 84 1.6 WSW 19 20 10 11 1015.1 1015.1 0.0
15/05:30am 17.5 15.8 14.8 84 1.6 WSW 17 20 9 11 1014.9 1014.9 0.0
15/05:00am 17.4 15.6 14.5 83 1.7 WSW 17 20 9 11 1014.7 1014.7 0.0
15/04:30am 17.8 16.6 15.1 84 1.6 WSW 15 17 8 9 1014.7 1014.7 0.0
15/04:00am 17.8 16.1 14.7 82 1.8 WSW 17 19 9 10 1014.7 1014.7 0.0
15/03:30am 18.4 17.1 14.7 79 2.1 SW 15 19 8 10 1014.7 1014.7 0.0
15/03:00am 21.1 20.1 13.5 62 4.4 SE 11 19 6 10 1014.8 1014.8 0.0
15/02:30am 21.0 19.5 13.2 61 4.5 ESE 13 19 7 10 1015.0 1015.0 0.0
15/02:00am 21.1 19.5 12.8 59 4.7 SE 13 20 7 11 1015.0 1015.0 0.0
15/01:30am 21.1 19.5 12.8 59 4.7 SE 13 20 7 11 1015.3 1015.3 0.0
15/01:00am 21.1 19.0 13.5 62 4.4 SE 17 24 9 13 1015.3 1015.3 0.0
15/12:30am 21.1 19.4 13.5 62 4.4 SE 15 22 8 12 1015.4 1015.4 0.0
15/12:00am 21.2 19.4 14.4 65 4.0 ESE 17 26 9 14 1015.4 1015.4 0.0
 
Date/Time
EST
Temp
°C
App
Temp
°C
Dew
Point
°C
Rel
Hum
%
Delta-T
°C
Wind Press
QNH
hPa
Press
MSL
hPa
Rain since
9am
mm
Dir  Spd
km/h
Gust
km/h
Spd
kts
Gust
kts
14/11:30pm 21.2 19.7 14.1 64 4.1 SE 15 20 8 11 1015.5 1015.5 0.0
14/11:00pm 21.3 20.0 13.7 62 4.4 SE 13 20 7 11 1015.9 1015.9 0.0
14/10:30pm 21.4 19.5 13.1 59 4.7 ESE 15 20 8 11 1015.9 1015.9 0.0
14/10:00pm 21.5 19.3 12.1 55 5.3 SE 15 20 8 11 1015.6 1015.6 0.0
14/09:30pm 21.4 20.1 12.5 57 5.0 SE 11 19 6 10 1015.5 1015.5 0.0
14/09:00pm 21.4 19.2 12.0 55 5.3 SE 15 20 8 11 1015.5 1015.5 0.0
14/08:30pm 21.4 19.9 12.0 55 5.3 SE 11 19 6 10 1015.3 1015.3 0.0
14/08:00pm 21.3 20.1 12.7 58 4.9 ESE 11 19 6 10 1015.1 1015.1 0.0
14/07:30pm 21.3 19.5 12.2 56 5.1 ESE 13 19 7 10 1015.0 1015.0 0.0
14/07:00pm 21.2 19.9 12.6 58 4.9 ESE 11 15 6 8 1014.7 1014.7 0.0
14/06:30pm 21.2 20.3 12.6 58 4.9 SE 9 17 5 9 1014.6 1014.6 0.0
14/06:00pm 20.9 20.2 13.1 61 4.4 ESE 9 13 5 7 1014.5 1014.5 0.0
14/05:30pm 21.3 21.1 14.7 66 3.9 ESE 9 13 5 7 1014.3 1014.3 0.0
14/05:00pm 21.6 21.7 15.4 68 3.7 ESE 9 13 5 7 1014.2 1014.2 0.0
14/04:30pm 21.7 21.4 15.5 68 3.7 SE 11 17 6 9 1013.9 1013.9 0.0
14/04:00pm 21.7 21.0 15.3 67 3.8 SE 13 17 7 9 1013.8 1013.8 0.0
14/03:30pm 21.7 21.2 16.0 70 3.4 SE 13 17 7 9 1014.1 1014.1 0.0
14/03:00pm 21.9 21.4 16.0 69 3.6 SE 13 17 7 9 1014.4 1014.4 0.0
14/02:30pm 21.8 21.3 15.9 69 3.5 SE 13 19 7 10 1014.7 1014.7 0.0
14/02:00pm 21.2 21.3 16.6 75 2.8 S 11 15 6 8 1015.0 1015.0 0.0
14/01:30pm 20.9 20.6 16.5 76 2.7 S 13 19 7 10 1015.4 1015.4 0.0
14/01:00pm 20.8 20.1 16.4 76 2.7 S 15 19 8 10 1015.7 1015.7 0.0
14/12:30pm 20.6 19.5 16.4 77 2.5 S 17 22 9 12 1016.2 1016.2 0.0
14/12:00pm 20.7 19.7 16.7 78 2.4 S 17 22 9 12 1016.5 1016.5 0.0
14/11:30am 20.5 19.8 16.3 77 2.5 S 15 20 8 11 1016.9 1016.9 0.0
14/11:00am 20.6 19.9 16.4 77 2.5 S 15 20 8 11 1017.2 1017.2 0.0
14/10:30am 20.9 20.8 16.9 78 2.4 S 13 15 7 8 1017.4 1017.4 0.0
14/10:00am 20.7 20.4 17.3 81 2.1 S 15 19 8 10 1017.5 1017.5 0.0
14/09:30am 20.4 19.6 17.0 81 2.1 S 17 20 9 11 1017.5 1017.5 0.0
14/09:00am 18.9 18.2 17.4 91 0.9 SW 17 20 9 11 1017.5 1017.5 0.0
14/08:30am 18.4 17.8 18.4 100 0.0 WSW 19 24 10 13 1017.3 1017.3 0.0

Other Formats:

Comma delimited format used in spreadsheet applications
http://www.bom.gov.au/fwo/IDQ60801/IDQ60801.94295.axf

JavaScript Object Notation format (JSON) in row-major order
http://www.bom.gov.au/fwo/IDQ60801/IDQ60801.94295.json